sensor_id;sensor_type;location;lat;lon;timestamp;P1;durP1;ratioP1;P2;durP2;ratioP2
65009;SDS011;51556;50.002;22.014;2023-06-22T00:00:55;10.10;;;7.60;;
65009;SDS011;51556;50.002;22.014;2023-06-22T00:03:22;9.20;;;7.80;;
65009;SDS011;51556;50.002;22.014;2023-06-22T00:05:49;8.30;;;7.40;;
65009;SDS011;51556;50.002;22.014;2023-06-22T00:08:15;9.80;;;7.70;;
65009;SDS011;51556;50.002;22.014;2023-06-22T00:10:41;11.40;;;7.40;;
65009;SDS011;51556;50.002;22.014;2023-06-22T00:13:07;7.80;;;6.90;;
65009;SDS011;51556;50.002;22.014;2023-06-22T00:15:34;14.00;;;8.90;;
65009;SDS011;51556;50.002;22.014;2023-06-22T00:18:01;14.40;;;8.70;;
65009;SDS011;51556;50.002;22.014;2023-06-22T00:20:27;12.00;;;8.30;;
65009;SDS011;51556;50.002;22.014;2023-06-22T00:22:54;14.60;;;9.40;;
65009;SDS011;51556;50.002;22.014;2023-06-22T00:25:23;13.10;;;8.70;;
65009;SDS011;51556;50.002;22.014;2023-06-22T00:27:49;10.40;;;7.40;;
65009;SDS011;51556;50.002;22.014;2023-06-22T00:30:15;10.10;;;7.80;;
65009;SDS011;51556;50.002;22.014;2023-06-22T00:32:42;10.60;;;8.00;;
65009;SDS011;51556;50.002;22.014;2023-06-22T00:35:09;11.00;;;7.50;;
65009;SDS011;51556;50.002;22.014;2023-06-22T00:37:35;11.20;;;8.10;;
65009;SDS011;51556;50.002;22.014;2023-06-22T00:40:02;11.20;;;8.20;;
65009;SDS011;51556;50.002;22.014;2023-06-22T00:42:29;12.40;;;8.70;;
65009;SDS011;51556;50.002;22.014;2023-06-22T00:44:55;9.70;;;8.10;;
65009;SDS011;51556;50.002;22.014;2023-06-22T00:47:21;12.90;;;8.30;;
65009;SDS011;51556;50.002;22.014;2023-06-22T00:49:47;11.10;;;8.00;;
65009;SDS011;51556;50.002;22.014;2023-06-22T00:52:16;15.20;;;8.50;;
65009;SDS011;51556;50.002;22.014;2023-06-22T00:54:46;11.70;;;7.70;;
65009;SDS011;51556;50.002;22.014;2023-06-22T00:57:14;11.10;;;7.40;;
65009;SDS011;51556;50.002;22.014;2023-06-22T00:59:43;10.10;;;8.00;;
65009;SDS011;51556;50.002;22.014;2023-06-22T01:02:13;11.50;;;8.80;;
65009;SDS011;51556;50.002;22.014;2023-06-22T01:04:39;12.90;;;8.30;;
65009;SDS011;51556;50.002;22.014;2023-06-22T01:09:46;11.80;;;8.60;;
65009;SDS011;51556;50.002;22.014;2023-06-22T01:12:19;11.30;;;8.30;;
65009;SDS011;51556;50.002;22.014;2023-06-22T01:14:50;10.00;;;8.10;;
65009;SDS011;51556;50.002;22.014;2023-06-22T01:17:23;11.30;;;8.30;;
65009;SDS011;51556;50.002;22.014;2023-06-22T01:19:51;9.60;;;7.70;;
65009;SDS011;51556;50.002;22.014;2023-06-22T01:22:27;9.90;;;8.00;;
65009;SDS011;51556;50.002;22.014;2023-06-22T01:30:11;12.70;;;8.30;;
65009;SDS011;51556;50.002;22.014;2023-06-22T01:32:39;9.90;;;8.10;;
65009;SDS011;51556;50.002;22.014;2023-06-22T01:35:06;12.50;;;8.70;;
65009;SDS011;51556;50.002;22.014;2023-06-22T01:37:33;12.90;;;9.20;;
65009;SDS011;51556;50.002;22.014;2023-06-22T01:40:01;15.00;;;9.10;;
65009;SDS011;51556;50.002;22.014;2023-06-22T01:42:30;15.10;;;9.40;;
65009;SDS011;51556;50.002;22.014;2023-06-22T01:44:57;14.10;;;9.10;;
65009;SDS011;51556;50.002;22.014;2023-06-22T01:47:24;13.50;;;8.80;;
65009;SDS011;51556;50.002;22.014;2023-06-22T01:49:50;12.20;;;8.20;;
65009;SDS011;51556;50.002;22.014;2023-06-22T01:52:17;10.20;;;8.60;;
65009;SDS011;51556;50.002;22.014;2023-06-22T01:54:43;11.00;;;7.70;;
65009;SDS011;51556;50.002;22.014;2023-06-22T01:57:08;12.50;;;8.60;;
65009;SDS011;51556;50.002;22.014;2023-06-22T01:59:37;9.90;;;8.00;;
65009;SDS011;51556;50.002;22.014;2023-06-22T02:02:09;11.40;;;8.60;;
65009;SDS011;51556;50.002;22.014;2023-06-22T02:04:43;10.40;;;7.90;;
65009;SDS011;51556;50.002;22.014;2023-06-22T02:07:23;10.90;;;8.80;;
65009;SDS011;51556;50.002;22.014;2023-06-22T02:09:55;13.40;;;8.60;;
65009;SDS011;51556;50.002;22.014;2023-06-22T02:12:23;10.80;;;8.30;;
65009;SDS011;51556;50.002;22.014;2023-06-22T02:14:50;11.30;;;8.10;;
65009;SDS011;51556;50.002;22.014;2023-06-22T02:17:17;12.30;;;8.50;;
65009;SDS011;51556;50.002;22.014;2023-06-22T02:19:43;12.80;;;8.50;;
65009;SDS011;51556;50.002;22.014;2023-06-22T02:22:09;10.50;;;8.70;;
65009;SDS011;51556;50.002;22.014;2023-06-22T02:24:35;10.00;;;8.00;;
65009;SDS011;51556;50.002;22.014;2023-06-22T02:27:01;10.80;;;8.80;;
65009;SDS011;51556;50.002;22.014;2023-06-22T02:29:27;12.90;;;8.80;;
65009;SDS011;51556;50.002;22.014;2023-06-22T02:31:53;12.50;;;8.80;;
65009;SDS011;51556;50.002;22.014;2023-06-22T02:34:20;11.30;;;8.10;;
65009;SDS011;51556;50.002;22.014;2023-06-22T02:36:47;14.70;;;8.70;;
65009;SDS011;51556;50.002;22.014;2023-06-22T02:39:20;11.80;;;8.50;;
65009;SDS011;51556;50.002;22.014;2023-06-22T02:41:50;10.80;;;8.40;;
65009;SDS011;51556;50.002;22.014;2023-06-22T02:44:16;11.80;;;8.70;;
65009;SDS011;51556;50.002;22.014;2023-06-22T02:46:42;10.80;;;8.80;;
65009;SDS011;51556;50.002;22.014;2023-06-22T02:49:07;12.40;;;8.70;;
65009;SDS011;51556;50.002;22.014;2023-06-22T02:51:33;12.30;;;7.90;;
65009;SDS011;51556;50.002;22.014;2023-06-22T02:53:59;12.40;;;9.10;;
65009;SDS011;51556;50.002;22.014;2023-06-22T02:56:25;11.70;;;8.30;;
65009;SDS011;51556;50.002;22.014;2023-06-22T02:58:51;9.90;;;8.30;;
65009;SDS011;51556;50.002;22.014;2023-06-22T03:01:17;13.10;;;8.80;;
65009;SDS011;51556;50.002;22.014;2023-06-22T03:03:48;11.00;;;8.80;;
65009;SDS011;51556;50.002;22.014;2023-06-22T03:06:13;11.60;;;8.50;;
65009;SDS011;51556;50.002;22.014;2023-06-22T03:08:39;12.40;;;8.30;;
65009;SDS011;51556;50.002;22.014;2023-06-22T03:11:06;9.20;;;8.20;;
65009;SDS011;51556;50.002;22.014;2023-06-22T03:13:32;11.00;;;8.50;;
65009;SDS011;51556;50.002;22.014;2023-06-22T03:15:58;12.60;;;8.40;;
65009;SDS011;51556;50.002;22.014;2023-06-22T03:18:24;10.90;;;8.30;;
65009;SDS011;51556;50.002;22.014;2023-06-22T03:20:49;12.50;;;9.10;;
65009;SDS011;51556;50.002;22.014;2023-06-22T03:23:14;9.30;;;8.30;;
65009;SDS011;51556;50.002;22.014;2023-06-22T03:25:40;10.40;;;8.30;;
65009;SDS011;51556;50.002;22.014;2023-06-22T03:28:09;11.80;;;9.00;;
65009;SDS011;51556;50.002;22.014;2023-06-22T03:30:35;13.10;;;8.40;;
65009;SDS011;51556;50.002;22.014;2023-06-22T03:33:01;13.00;;;8.20;;
65009;SDS011;51556;50.002;22.014;2023-06-22T03:35:26;12.90;;;8.50;;
65009;SDS011;51556;50.002;22.014;2023-06-22T03:37:52;10.60;;;8.50;;
65009;SDS011;51556;50.002;22.014;2023-06-22T03:40:18;11.70;;;8.10;;
65009;SDS011;51556;50.002;22.014;2023-06-22T03:42:43;12.90;;;8.90;;
65009;SDS011;51556;50.002;22.014;2023-06-22T03:45:09;14.90;;;8.50;;
65009;SDS011;51556;50.002;22.014;2023-06-22T03:47:35;11.20;;;8.20;;
65009;SDS011;51556;50.002;22.014;2023-06-22T03:50:00;11.20;;;8.30;;
65009;SDS011;51556;50.002;22.014;2023-06-22T03:52:28;12.80;;;8.20;;
65009;SDS011;51556;50.002;22.014;2023-06-22T03:54:57;10.80;;;8.00;;
65009;SDS011;51556;50.002;22.014;2023-06-22T03:57:22;9.50;;;8.10;;
65009;SDS011;51556;50.002;22.014;2023-06-22T03:59:48;10.90;;;8.60;;
65009;SDS011;51556;50.002;22.014;2023-06-22T04:02:15;12.60;;;8.10;;
65009;SDS011;51556;50.002;22.014;2023-06-22T04:04:40;11.60;;;7.80;;
65009;SDS011;51556;50.002;22.014;2023-06-22T04:07:06;11.20;;;7.70;;
65009;SDS011;51556;50.002;22.014;2023-06-22T04:09:31;11.00;;;8.20;;
65009;SDS011;51556;50.002;22.014;2023-06-22T04:11:57;11.80;;;7.60;;
65009;SDS011;51556;50.002;22.014;2023-06-22T04:14:22;12.70;;;8.00;;
65009;SDS011;51556;50.002;22.014;2023-06-22T04:16:48;14.10;;;8.50;;
65009;SDS011;51556;50.002;22.014;2023-06-22T04:19:13;11.70;;;7.20;;
65009;SDS011;51556;50.002;22.014;2023-06-22T04:21:42;12.00;;;7.90;;
65009;SDS011;51556;50.002;22.014;2023-06-22T04:24:09;19.20;;;8.60;;
65009;SDS011;51556;50.002;22.014;2023-06-22T04:26:35;14.50;;;8.80;;
65009;SDS011;51556;50.002;22.014;2023-06-22T04:29:02;15.40;;;8.60;;
65009;SDS011;51556;50.002;22.014;2023-06-22T04:31:34;12.90;;;9.00;;
65009;SDS011;51556;50.002;22.014;2023-06-22T04:34:06;14.80;;;8.70;;
65009;SDS011;51556;50.002;22.014;2023-06-22T04:36:33;10.80;;;8.20;;
65009;SDS011;51556;50.002;22.014;2023-06-22T04:41:32;12.90;;;8.30;;
65009;SDS011;51556;50.002;22.014;2023-06-22T04:46:39;12.90;;;8.30;;
65009;SDS011;51556;50.002;22.014;2023-06-22T04:49:06;15.80;;;8.50;;
65009;SDS011;51556;50.002;22.014;2023-06-22T04:51:35;17.10;;;8.60;;
65009;SDS011;51556;50.002;22.014;2023-06-22T04:54:09;12.70;;;8.90;;
65009;SDS011;51556;50.002;22.014;2023-06-22T04:56:35;15.50;;;8.50;;
65009;SDS011;51556;50.002;22.014;2023-06-22T04:59:01;10.40;;;8.60;;
65009;SDS011;51556;50.002;22.014;2023-06-22T05:01:28;13.90;;;8.90;;
65009;SDS011;51556;50.002;22.014;2023-06-22T05:03:56;9.10;;;7.60;;
65009;SDS011;51556;50.002;22.014;2023-06-22T05:06:23;11.90;;;8.20;;
65009;SDS011;51556;50.002;22.014;2023-06-22T05:08:56;11.60;;;8.60;;
65009;SDS011;51556;50.002;22.014;2023-06-22T05:11:23;21.90;;;8.80;;
65009;SDS011;51556;50.002;22.014;2023-06-22T05:13:50;13.10;;;8.80;;
65009;SDS011;51556;50.002;22.014;2023-06-22T05:16:15;19.00;;;8.80;;
65009;SDS011;51556;50.002;22.014;2023-06-22T05:18:41;11.10;;;8.70;;
65009;SDS011;51556;50.002;22.014;2023-06-22T05:21:07;15.20;;;9.50;;
65009;SDS011;51556;50.002;22.014;2023-06-22T05:23:32;14.50;;;9.50;;
65009;SDS011;51556;50.002;22.014;2023-06-22T05:25:58;15.50;;;8.70;;
65009;SDS011;51556;50.002;22.014;2023-06-22T05:28:23;12.20;;;8.00;;
65009;SDS011;51556;50.002;22.014;2023-06-22T05:30:49;15.50;;;9.10;;
65009;SDS011;51556;50.002;22.014;2023-06-22T05:33:14;14.20;;;8.70;;
65009;SDS011;51556;50.002;22.014;2023-06-22T05:35:40;13.00;;;8.40;;
65009;SDS011;51556;50.002;22.014;2023-06-22T05:38:06;12.90;;;8.70;;
65009;SDS011;51556;50.002;22.014;2023-06-22T05:40:32;16.00;;;8.60;;
65009;SDS011;51556;50.002;22.014;2023-06-22T05:42:57;11.40;;;9.30;;
65009;SDS011;51556;50.002;22.014;2023-06-22T05:45:24;13.30;;;9.70;;
65009;SDS011;51556;50.002;22.014;2023-06-22T05:47:50;12.90;;;9.20;;
65009;SDS011;51556;50.002;22.014;2023-06-22T05:50:15;16.60;;;8.80;;
65009;SDS011;51556;50.002;22.014;2023-06-22T05:52:41;12.00;;;8.90;;
65009;SDS011;51556;50.002;22.014;2023-06-22T05:55:07;11.70;;;9.40;;
65009;SDS011;51556;50.002;22.014;2023-06-22T05:57:33;13.30;;;9.30;;
65009;SDS011;51556;50.002;22.014;2023-06-22T05:59:58;12.60;;;9.50;;
65009;SDS011;51556;50.002;22.014;2023-06-22T06:02:24;16.40;;;9.70;;
65009;SDS011;51556;50.002;22.014;2023-06-22T06:04:50;12.60;;;9.60;;
65009;SDS011;51556;50.002;22.014;2023-06-22T06:07:19;12.70;;;9.40;;
65009;SDS011;51556;50.002;22.014;2023-06-22T06:09:44;13.50;;;9.50;;
65009;SDS011;51556;50.002;22.014;2023-06-22T06:12:13;17.00;;;10.30;;
65009;SDS011;51556;50.002;22.014;2023-06-22T06:14:38;13.00;;;9.60;;
65009;SDS011;51556;50.002;22.014;2023-06-22T06:17:06;16.80;;;9.90;;
65009;SDS011;51556;50.002;22.014;2023-06-22T06:19:32;14.80;;;10.30;;
65009;SDS011;51556;50.002;22.014;2023-06-22T06:22:01;18.70;;;11.10;;
65009;SDS011;51556;50.002;22.014;2023-06-22T06:24:27;17.90;;;10.70;;
65009;SDS011;51556;50.002;22.014;2023-06-22T06:26:52;16.20;;;9.40;;
65009;SDS011;51556;50.002;22.014;2023-06-22T06:29:17;13.40;;;9.40;;
65009;SDS011;51556;50.002;22.014;2023-06-22T06:31:43;16.70;;;9.80;;
65009;SDS011;51556;50.002;22.014;2023-06-22T06:34:09;16.40;;;10.00;;
65009;SDS011;51556;50.002;22.014;2023-06-22T06:36:34;12.90;;;9.50;;
65009;SDS011;51556;50.002;22.014;2023-06-22T06:39:00;13.30;;;9.30;;
65009;SDS011;51556;50.002;22.014;2023-06-22T06:41:25;19.80;;;10.60;;
65009;SDS011;51556;50.002;22.014;2023-06-22T06:43:51;16.40;;;10.80;;
65009;SDS011;51556;50.002;22.014;2023-06-22T06:46:17;16.40;;;10.20;;
65009;SDS011;51556;50.002;22.014;2023-06-22T06:48:44;17.90;;;10.90;;
65009;SDS011;51556;50.002;22.014;2023-06-22T06:51:09;13.70;;;10.50;;
65009;SDS011;51556;50.002;22.014;2023-06-22T06:53:35;18.00;;;10.30;;
65009;SDS011;51556;50.002;22.014;2023-06-22T06:56:02;18.20;;;11.00;;
65009;SDS011;51556;50.002;22.014;2023-06-22T06:58:28;14.70;;;10.80;;
65009;SDS011;51556;50.002;22.014;2023-06-22T07:00:54;12.70;;;10.70;;
65009;SDS011;51556;50.002;22.014;2023-06-22T07:03:19;13.70;;;9.90;;
65009;SDS011;51556;50.002;22.014;2023-06-22T07:05:45;13.40;;;10.40;;
65009;SDS011;51556;50.002;22.014;2023-06-22T07:08:10;16.30;;;10.70;;
65009;SDS011;51556;50.002;22.014;2023-06-22T07:10:36;13.10;;;10.50;;
65009;SDS011;51556;50.002;22.014;2023-06-22T07:13:01;17.70;;;10.90;;
65009;SDS011;51556;50.002;22.014;2023-06-22T07:15:27;16.90;;;11.00;;
65009;SDS011;51556;50.002;22.014;2023-06-22T07:17:55;14.00;;;10.50;;
65009;SDS011;51556;50.002;22.014;2023-06-22T07:20:21;13.60;;;10.90;;
65009;SDS011;51556;50.002;22.014;2023-06-22T07:22:46;13.50;;;9.70;;
65009;SDS011;51556;50.002;22.014;2023-06-22T07:25:12;13.00;;;10.40;;
65009;SDS011;51556;50.002;22.014;2023-06-22T07:27:46;9.80;;;8.50;;
65009;SDS011;51556;50.002;22.014;2023-06-22T07:30:32;11.60;;;8.90;;
65009;SDS011;51556;50.002;22.014;2023-06-22T07:32:59;9.40;;;8.40;;
65009;SDS011;51556;50.002;22.014;2023-06-22T07:35:34;12.10;;;8.40;;
65009;SDS011;51556;50.002;22.014;2023-06-22T07:38:00;10.20;;;7.90;;
65009;SDS011;51556;50.002;22.014;2023-06-22T07:40:26;12.40;;;8.20;;
65009;SDS011;51556;50.002;22.014;2023-06-22T07:42:51;9.40;;;7.10;;
65009;SDS011;51556;50.002;22.014;2023-06-22T07:45:18;9.90;;;7.50;;
65009;SDS011;51556;50.002;22.014;2023-06-22T07:47:43;14.80;;;8.40;;
65009;SDS011;51556;50.002;22.014;2023-06-22T07:50:09;9.50;;;7.40;;
65009;SDS011;51556;50.002;22.014;2023-06-22T07:52:35;10.80;;;8.00;;
65009;SDS011;51556;50.002;22.014;2023-06-22T07:55:00;7.30;;;6.60;;
65009;SDS011;51556;50.002;22.014;2023-06-22T07:57:27;8.20;;;6.30;;
65009;SDS011;51556;50.002;22.014;2023-06-22T08:00:02;6.50;;;5.90;;
65009;SDS011;51556;50.002;22.014;2023-06-22T08:02:37;6.50;;;5.60;;
65009;SDS011;51556;50.002;22.014;2023-06-22T08:05:02;8.80;;;6.20;;
65009;SDS011;51556;50.002;22.014;2023-06-22T08:07:27;7.90;;;6.00;;
65009;SDS011;51556;50.002;22.014;2023-06-22T08:09:53;9.30;;;5.90;;
65009;SDS011;51556;50.002;22.014;2023-06-22T08:12:18;7.30;;;6.10;;
65009;SDS011;51556;50.002;22.014;2023-06-22T08:14:44;7.40;;;6.20;;
65009;SDS011;51556;50.002;22.014;2023-06-22T08:17:11;8.20;;;5.70;;
65009;SDS011;51556;50.002;22.014;2023-06-22T08:19:40;9.20;;;6.30;;
65009;SDS011;51556;50.002;22.014;2023-06-22T08:22:05;7.80;;;6.10;;
65009;SDS011;51556;50.002;22.014;2023-06-22T08:24:31;8.90;;;6.90;;
65009;SDS011;51556;50.002;22.014;2023-06-22T08:26:56;13.30;;;6.80;;
65009;SDS011;51556;50.002;22.014;2023-06-22T08:29:22;10.50;;;6.50;;
65009;SDS011;51556;50.002;22.014;2023-06-22T08:31:47;8.30;;;6.10;;
65009;SDS011;51556;50.002;22.014;2023-06-22T08:34:13;7.80;;;6.30;;
65009;SDS011;51556;50.002;22.014;2023-06-22T08:36:39;8.20;;;6.40;;
65009;SDS011;51556;50.002;22.014;2023-06-22T08:39:07;7.70;;;6.40;;
65009;SDS011;51556;50.002;22.014;2023-06-22T08:41:35;8.00;;;6.60;;
65009;SDS011;51556;50.002;22.014;2023-06-22T08:44:00;7.60;;;6.80;;
65009;SDS011;51556;50.002;22.014;2023-06-22T08:46:26;9.60;;;6.30;;
65009;SDS011;51556;50.002;22.014;2023-06-22T08:48:55;7.10;;;6.20;;
65009;SDS011;51556;50.002;22.014;2023-06-22T08:51:22;7.70;;;6.00;;
65009;SDS011;51556;50.002;22.014;2023-06-22T08:53:47;9.60;;;7.10;;
65009;SDS011;51556;50.002;22.014;2023-06-22T08:56:13;8.50;;;7.60;;
65009;SDS011;51556;50.002;22.014;2023-06-22T08:58:38;8.20;;;6.80;;
65009;SDS011;51556;50.002;22.014;2023-06-22T09:01:07;7.70;;;6.30;;
65009;SDS011;51556;50.002;22.014;2023-06-22T09:03:32;10.00;;;7.10;;
65009;SDS011;51556;50.002;22.014;2023-06-22T09:06:01;9.10;;;7.00;;
65009;SDS011;51556;50.002;22.014;2023-06-22T09:08:27;7.70;;;6.90;;
65009;SDS011;51556;50.002;22.014;2023-06-22T09:10:52;11.20;;;7.10;;
65009;SDS011;51556;50.002;22.014;2023-06-22T09:13:20;10.40;;;7.50;;
65009;SDS011;51556;50.002;22.014;2023-06-22T09:15:47;8.10;;;7.20;;
65009;SDS011;51556;50.002;22.014;2023-06-22T09:18:18;7.90;;;7.00;;
65009;SDS011;51556;50.002;22.014;2023-06-22T09:20:46;10.00;;;7.50;;
65009;SDS011;51556;50.002;22.014;2023-06-22T09:23:12;9.50;;;7.70;;
65009;SDS011;51556;50.002;22.014;2023-06-22T09:25:37;9.30;;;8.10;;
65009;SDS011;51556;50.002;22.014;2023-06-22T09:28:06;13.90;;;8.30;;
65009;SDS011;51556;50.002;22.014;2023-06-22T09:30:42;9.10;;;8.20;;
65009;SDS011;51556;50.002;22.014;2023-06-22T09:33:09;8.50;;;7.60;;
65009;SDS011;51556;50.002;22.014;2023-06-22T09:35:44;9.80;;;8.00;;
65009;SDS011;51556;50.002;22.014;2023-06-22T09:38:10;8.40;;;7.10;;
65009;SDS011;51556;50.002;22.014;2023-06-22T09:40:44;11.20;;;7.60;;
65009;SDS011;51556;50.002;22.014;2023-06-22T09:43:13;9.40;;;7.80;;
65009;SDS011;51556;50.002;22.014;2023-06-22T09:46:02;9.30;;;7.00;;
65009;SDS011;51556;50.002;22.014;2023-06-22T09:48:28;11.10;;;7.80;;
65009;SDS011;51556;50.002;22.014;2023-06-22T09:51:16;10.20;;;8.10;;
65009;SDS011;51556;50.002;22.014;2023-06-22T09:56:43;7.90;;;7.10;;
65009;SDS011;51556;50.002;22.014;2023-06-22T09:59:32;10.00;;;8.10;;
65009;SDS011;51556;50.002;22.014;2023-06-22T10:02:00;9.50;;;7.50;;
65009;SDS011;51556;50.002;22.014;2023-06-22T10:07:57;13.70;;;8.60;;
65009;SDS011;51556;50.002;22.014;2023-06-22T10:10:35;9.80;;;8.40;;
65009;SDS011;51556;50.002;22.014;2023-06-22T10:13:19;11.10;;;8.40;;
65009;SDS011;51556;50.002;22.014;2023-06-22T10:15:47;9.60;;;7.90;;
65009;SDS011;51556;50.002;22.014;2023-06-22T10:18:25;12.70;;;8.30;;
65009;SDS011;51556;50.002;22.014;2023-06-22T10:27:32;12.70;;;8.50;;
65009;SDS011;51556;50.002;22.014;2023-06-22T10:33:22;8.20;;;7.40;;
65009;SDS011;51556;50.002;22.014;2023-06-22T10:35:48;10.90;;;8.20;;
65009;SDS011;51556;50.002;22.014;2023-06-22T10:38:14;12.50;;;8.90;;
65009;SDS011;51556;50.002;22.014;2023-06-22T10:40:39;12.60;;;8.90;;
65009;SDS011;51556;50.002;22.014;2023-06-22T10:43:07;10.20;;;8.90;;
65009;SDS011;51556;50.002;22.014;2023-06-22T10:45:33;9.60;;;8.30;;
65009;SDS011;51556;50.002;22.014;2023-06-22T10:48:07;12.50;;;9.10;;
65009;SDS011;51556;50.002;22.014;2023-06-22T10:50:50;10.70;;;9.20;;
65009;SDS011;51556;50.002;22.014;2023-06-22T10:53:25;10.70;;;8.40;;
65009;SDS011;51556;50.002;22.014;2023-06-22T10:55:50;13.80;;;9.40;;
65009;SDS011;51556;50.002;22.014;2023-06-22T10:58:26;13.60;;;9.60;;
65009;SDS011;51556;50.002;22.014;2023-06-22T11:00:52;12.70;;;9.10;;
65009;SDS011;51556;50.002;22.014;2023-06-22T11:05:56;11.10;;;8.60;;
65009;SDS011;51556;50.002;22.014;2023-06-22T11:08:21;10.90;;;9.50;;
65009;SDS011;51556;50.002;22.014;2023-06-22T11:10:46;10.80;;;8.90;;
65009;SDS011;51556;50.002;22.014;2023-06-22T11:13:12;12.00;;;9.00;;
65009;SDS011;51556;50.002;22.014;2023-06-22T11:15:38;10.60;;;9.00;;
65009;SDS011;51556;50.002;22.014;2023-06-22T11:18:04;10.30;;;8.80;;
65009;SDS011;51556;50.002;22.014;2023-06-22T11:20:40;11.40;;;8.70;;
65009;SDS011;51556;50.002;22.014;2023-06-22T11:23:06;9.80;;;8.50;;
65009;SDS011;51556;50.002;22.014;2023-06-22T11:34:56;7.40;;;6.70;;
65009;SDS011;51556;50.002;22.014;2023-06-22T11:37:52;8.80;;;7.60;;
65009;SDS011;51556;50.002;22.014;2023-06-22T11:40:58;9.90;;;8.20;;
65009;SDS011;51556;50.002;22.014;2023-06-22T11:44:03;8.50;;;7.60;;
65009;SDS011;51556;50.002;22.014;2023-06-22T11:47:09;12.90;;;7.80;;
65009;SDS011;51556;50.002;22.014;2023-06-22T11:50:15;11.30;;;7.60;;
65009;SDS011;51556;50.002;22.014;2023-06-22T11:56:50;8.60;;;7.20;;
65009;SDS011;51556;50.002;22.014;2023-06-22T12:02:54;8.40;;;7.60;;
65009;SDS011;51556;50.002;22.014;2023-06-22T12:05:45;10.10;;;7.80;;
65009;SDS011;51556;50.002;22.014;2023-06-22T12:08:54;10.30;;;7.90;;
65009;SDS011;51556;50.002;22.014;2023-06-22T13:05:19;7.70;;;6.90;;
65009;SDS011;51556;50.002;22.014;2023-06-22T13:11:22;9.30;;;7.00;;
65009;SDS011;51556;50.002;22.014;2023-06-22T13:13:48;8.70;;;6.40;;
65009;SDS011;51556;50.002;22.014;2023-06-22T13:16:41;4.80;;;4.40;;
65009;SDS011;51556;50.002;22.014;2023-06-22T13:23:03;4.40;;;4.00;;
65009;SDS011;51556;50.002;22.014;2023-06-22T13:25:29;6.30;;;4.20;;
65009;SDS011;51556;50.002;22.014;2023-06-22T13:28:04;6.30;;;4.70;;
65009;SDS011;51556;50.002;22.014;2023-06-22T13:30:50;5.40;;;4.90;;
65009;SDS011;51556;50.002;22.014;2023-06-22T13:33:16;8.10;;;5.80;;
65009;SDS011;51556;50.002;22.014;2023-06-22T13:35:42;6.90;;;5.80;;
65009;SDS011;51556;50.002;22.014;2023-06-22T13:38:08;7.60;;;5.60;;
65009;SDS011;51556;50.002;22.014;2023-06-22T13:40:55;9.00;;;5.90;;
65009;SDS011;51556;50.002;22.014;2023-06-22T13:43:22;8.20;;;6.50;;
65009;SDS011;51556;50.002;22.014;2023-06-22T13:46:08;7.70;;;6.60;;
65009;SDS011;51556;50.002;22.014;2023-06-22T13:48:33;7.20;;;6.50;;
65009;SDS011;51556;50.002;22.014;2023-06-22T13:51:04;7.70;;;6.40;;
65009;SDS011;51556;50.002;22.014;2023-06-22T13:59:22;8.40;;;6.50;;
65009;SDS011;51556;50.002;22.014;2023-06-22T14:01:48;7.90;;;6.10;;
65009;SDS011;51556;50.002;22.014;2023-06-22T14:07:22;6.60;;;4.80;;
65009;SDS011;51556;50.002;22.014;2023-06-22T14:26:56;5.90;;;5.00;;
65009;SDS011;51556;50.002;22.014;2023-06-22T16:47:33;8.40;;;7.60;;
65009;SDS011;51556;50.002;22.014;2023-06-22T17:00:53;10.00;;;7.70;;
65009;SDS011;51556;50.002;22.014;2023-06-22T17:52:33;13.30;;;9.40;;
65009;SDS011;51556;50.002;22.014;2023-06-22T18:22:52;11.90;;;10.50;;
65009;SDS011;51556;50.002;22.014;2023-06-22T18:26:03;12.30;;;9.50;;
65009;SDS011;51556;50.002;22.014;2023-06-22T18:35:48;12.50;;;10.10;;
65009;SDS011;51556;50.002;22.014;2023-06-22T18:48:14;20.80;;;14.10;;
65009;SDS011;51556;50.002;22.014;2023-06-22T18:51:24;18.50;;;13.40;;
65009;SDS011;51556;50.002;22.014;2023-06-22T18:54:39;25.10;;;15.30;;
65009;SDS011;51556;50.002;22.014;2023-06-22T18:57:12;24.40;;;15.20;;
65009;SDS011;51556;50.002;22.014;2023-06-22T19:02:08;21.40;;;14.30;;
65009;SDS011;51556;50.002;22.014;2023-06-22T19:04:36;20.70;;;15.20;;
65009;SDS011;51556;50.002;22.014;2023-06-22T19:07:13;19.20;;;15.80;;
65009;SDS011;51556;50.002;22.014;2023-06-22T19:13:22;23.40;;;15.30;;
65009;SDS011;51556;50.002;22.014;2023-06-22T19:15:52;18.60;;;13.50;;
65009;SDS011;51556;50.002;22.014;2023-06-22T19:18:20;18.00;;;14.00;;
65009;SDS011;51556;50.002;22.014;2023-06-22T19:20:47;17.90;;;13.60;;
65009;SDS011;51556;50.002;22.014;2023-06-22T19:23:23;22.30;;;14.00;;
65009;SDS011;51556;50.002;22.014;2023-06-22T19:25:50;19.70;;;13.40;;
65009;SDS011;51556;50.002;22.014;2023-06-22T19:28:16;22.30;;;15.10;;
65009;SDS011;51556;50.002;22.014;2023-06-22T19:34:17;25.10;;;15.10;;
65009;SDS011;51556;50.002;22.014;2023-06-22T19:36:42;22.50;;;14.50;;
65009;SDS011;51556;50.002;22.014;2023-06-22T19:41:53;23.20;;;13.70;;
65009;SDS011;51556;50.002;22.014;2023-06-22T19:44:18;18.80;;;13.50;;
65009;SDS011;51556;50.002;22.014;2023-06-22T19:46:45;21.60;;;13.70;;
65009;SDS011;51556;50.002;22.014;2023-06-22T19:49:11;18.10;;;13.50;;
65009;SDS011;51556;50.002;22.014;2023-06-22T19:51:41;17.60;;;12.70;;
65009;SDS011;51556;50.002;22.014;2023-06-22T19:54:07;24.20;;;14.00;;
65009;SDS011;51556;50.002;22.014;2023-06-22T19:56:36;16.90;;;13.00;;
65009;SDS011;51556;50.002;22.014;2023-06-22T19:59:08;17.50;;;13.30;;
65009;SDS011;51556;50.002;22.014;2023-06-22T20:01:38;20.20;;;13.40;;
65009;SDS011;51556;50.002;22.014;2023-06-22T20:04:05;16.10;;;12.30;;
65009;SDS011;51556;50.002;22.014;2023-06-22T20:06:30;21.00;;;13.00;;
65009;SDS011;51556;50.002;22.014;2023-06-22T20:08:56;16.50;;;12.40;;
65009;SDS011;51556;50.002;22.014;2023-06-22T20:11:29;18.00;;;13.50;;
65009;SDS011;51556;50.002;22.014;2023-06-22T20:13:56;16.10;;;12.70;;
65009;SDS011;51556;50.002;22.014;2023-06-22T20:16:27;17.00;;;13.00;;
65009;SDS011;51556;50.002;22.014;2023-06-22T20:19:11;17.00;;;13.00;;
65009;SDS011;51556;50.002;22.014;2023-06-22T20:21:40;21.50;;;13.40;;
65009;SDS011;51556;50.002;22.014;2023-06-22T20:24:10;18.60;;;13.20;;
65009;SDS011;51556;50.002;22.014;2023-06-22T20:26:40;19.40;;;13.20;;
65009;SDS011;51556;50.002;22.014;2023-06-22T20:29:22;18.90;;;13.50;;
65009;SDS011;51556;50.002;22.014;2023-06-22T20:31:50;19.20;;;13.70;;
65009;SDS011;51556;50.002;22.014;2023-06-22T20:34:32;20.40;;;13.60;;
65009;SDS011;51556;50.002;22.014;2023-06-22T20:37:00;19.60;;;13.20;;
65009;SDS011;51556;50.002;22.014;2023-06-22T20:39:26;18.80;;;13.60;;
65009;SDS011;51556;50.002;22.014;2023-06-22T20:41:51;17.20;;;13.30;;
65009;SDS011;51556;50.002;22.014;2023-06-22T20:44:19;18.40;;;13.90;;
65009;SDS011;51556;50.002;22.014;2023-06-22T20:46:45;23.30;;;14.10;;
65009;SDS011;51556;50.002;22.014;2023-06-22T20:49:11;20.40;;;14.30;;
65009;SDS011;51556;50.002;22.014;2023-06-22T20:51:37;20.00;;;13.70;;
65009;SDS011;51556;50.002;22.014;2023-06-22T20:54:05;19.10;;;14.60;;
65009;SDS011;51556;50.002;22.014;2023-06-22T20:56:30;18.90;;;14.90;;
65009;SDS011;51556;50.002;22.014;2023-06-22T20:58:59;20.90;;;14.60;;
65009;SDS011;51556;50.002;22.014;2023-06-22T21:01:25;21.40;;;15.20;;
65009;SDS011;51556;50.002;22.014;2023-06-22T21:03:58;26.30;;;16.00;;